sensor_id;sensor_type;location;lat;lon;timestamp;P1;durP1;ratioP1;P2;durP2;ratioP2
7128;SDS011;3606;52.930;8.644;2022-12-24T00:00:31;9.57;;;8.03;;
7128;SDS011;3606;52.930;8.644;2022-12-24T00:02:57;13.93;;;8.10;;
7128;SDS011;3606;52.930;8.644;2022-12-24T00:05:23;13.87;;;8.37;;
7128;SDS011;3606;52.930;8.644;2022-12-24T00:07:48;11.27;;;8.17;;
7128;SDS011;3606;52.930;8.644;2022-12-24T00:10:14;15.10;;;8.10;;
7128;SDS011;3606;52.930;8.644;2022-12-24T00:12:40;13.20;;;7.40;;
7128;SDS011;3606;52.930;8.644;2022-12-24T00:15:06;9.73;;;7.37;;
7128;SDS011;3606;52.930;8.644;2022-12-24T00:17:32;9.50;;;6.80;;
7128;SDS011;3606;52.930;8.644;2022-12-24T00:19:57;9.40;;;7.37;;
7128;SDS011;3606;52.930;8.644;2022-12-24T00:22:23;10.00;;;6.93;;
7128;SDS011;3606;52.930;8.644;2022-12-24T00:24:49;11.17;;;6.77;;
7128;SDS011;3606;52.930;8.644;2022-12-24T00:27:14;8.90;;;6.13;;
7128;SDS011;3606;52.930;8.644;2022-12-24T00:29:40;9.70;;;6.40;;
7128;SDS011;3606;52.930;8.644;2022-12-24T00:32:06;9.53;;;6.43;;
7128;SDS011;3606;52.930;8.644;2022-12-24T00:34:34;8.07;;;6.20;;
7128;SDS011;3606;52.930;8.644;2022-12-24T00:37:01;10.10;;;6.47;;
7128;SDS011;3606;52.930;8.644;2022-12-24T00:39:27;6.30;;;5.37;;
7128;SDS011;3606;52.930;8.644;2022-12-24T00:41:53;9.83;;;6.47;;
7128;SDS011;3606;52.930;8.644;2022-12-24T00:44:18;7.70;;;5.83;;
7128;SDS011;3606;52.930;8.644;2022-12-24T00:46:44;11.53;;;6.63;;
7128;SDS011;3606;52.930;8.644;2022-12-24T00:49:09;8.03;;;5.80;;
7128;SDS011;3606;52.930;8.644;2022-12-24T00:51:36;7.60;;;5.90;;
7128;SDS011;3606;52.930;8.644;2022-12-24T00:54:03;8.50;;;6.33;;
7128;SDS011;3606;52.930;8.644;2022-12-24T00:56:29;7.10;;;5.93;;
7128;SDS011;3606;52.930;8.644;2022-12-24T00:58:54;8.80;;;6.23;;
7128;SDS011;3606;52.930;8.644;2022-12-24T01:01:20;9.00;;;6.03;;
7128;SDS011;3606;52.930;8.644;2022-12-24T01:03:46;6.87;;;6.00;;
7128;SDS011;3606;52.930;8.644;2022-12-24T01:06:13;7.60;;;5.80;;
7128;SDS011;3606;52.930;8.644;2022-12-24T01:08:43;11.33;;;6.30;;
7128;SDS011;3606;52.930;8.644;2022-12-24T01:11:10;9.50;;;6.53;;
7128;SDS011;3606;52.930;8.644;2022-12-24T01:13:36;7.63;;;6.10;;
7128;SDS011;3606;52.930;8.644;2022-12-24T01:16:02;9.27;;;5.97;;
7128;SDS011;3606;52.930;8.644;2022-12-24T01:18:35;8.50;;;6.53;;
7128;SDS011;3606;52.930;8.644;2022-12-24T01:21:02;8.47;;;6.47;;
7128;SDS011;3606;52.930;8.644;2022-12-24T01:23:28;8.07;;;6.10;;
7128;SDS011;3606;52.930;8.644;2022-12-24T01:25:58;8.83;;;6.00;;
7128;SDS011;3606;52.930;8.644;2022-12-24T01:28:25;6.80;;;5.33;;
7128;SDS011;3606;52.930;8.644;2022-12-24T01:30:50;8.17;;;6.13;;
7128;SDS011;3606;52.930;8.644;2022-12-24T01:33:16;9.07;;;5.03;;
7128;SDS011;3606;52.930;8.644;2022-12-24T01:35:42;7.00;;;5.80;;
7128;SDS011;3606;52.930;8.644;2022-12-24T01:38:08;6.70;;;5.67;;
7128;SDS011;3606;52.930;8.644;2022-12-24T01:40:36;7.70;;;5.30;;
7128;SDS011;3606;52.930;8.644;2022-12-24T01:43:21;6.43;;;5.20;;
7128;SDS011;3606;52.930;8.644;2022-12-24T01:53:53;6.23;;;4.80;;
7128;SDS011;3606;52.930;8.644;2022-12-24T01:56:25;6.43;;;4.97;;
7128;SDS011;3606;52.930;8.644;2022-12-24T01:58:54;6.33;;;5.00;;
7128;SDS011;3606;52.930;8.644;2022-12-24T02:01:24;6.90;;;4.77;;
7128;SDS011;3606;52.930;8.644;2022-12-24T02:03:50;6.17;;;4.80;;
7128;SDS011;3606;52.930;8.644;2022-12-24T02:06:16;6.77;;;5.23;;
7128;SDS011;3606;52.930;8.644;2022-12-24T02:08:44;6.07;;;5.03;;
7128;SDS011;3606;52.930;8.644;2022-12-24T02:11:11;6.47;;;4.23;;
7128;SDS011;3606;52.930;8.644;2022-12-24T02:13:47;7.50;;;5.10;;
7128;SDS011;3606;52.930;8.644;2022-12-24T02:16:21;5.30;;;4.70;;
7128;SDS011;3606;52.930;8.644;2022-12-24T02:19:32;8.17;;;5.10;;
7128;SDS011;3606;52.930;8.644;2022-12-24T02:25:12;5.80;;;5.10;;
7128;SDS011;3606;52.930;8.644;2022-12-24T02:30:42;6.03;;;5.03;;
7128;SDS011;3606;52.930;8.644;2022-12-24T02:36:10;6.50;;;4.40;;
7128;SDS011;3606;52.930;8.644;2022-12-24T02:41:29;9.30;;;5.57;;
7128;SDS011;3606;52.930;8.644;2022-12-24T02:44:18;6.80;;;5.27;;
7128;SDS011;3606;52.930;8.644;2022-12-24T02:46:47;5.77;;;4.63;;
7128;SDS011;3606;52.930;8.644;2022-12-24T02:49:13;6.63;;;4.87;;
7128;SDS011;3606;52.930;8.644;2022-12-24T02:51:39;6.30;;;5.27;;
7128;SDS011;3606;52.930;8.644;2022-12-24T02:54:04;6.50;;;5.23;;
7128;SDS011;3606;52.930;8.644;2022-12-24T02:59:27;6.57;;;5.30;;
7128;SDS011;3606;52.930;8.644;2022-12-24T03:02:23;7.90;;;5.87;;
7128;SDS011;3606;52.930;8.644;2022-12-24T03:04:58;7.13;;;5.50;;
7128;SDS011;3606;52.930;8.644;2022-12-24T03:07:55;7.60;;;5.73;;
7128;SDS011;3606;52.930;8.644;2022-12-24T03:10:59;7.97;;;5.93;;
7128;SDS011;3606;52.930;8.644;2022-12-24T03:13:31;7.27;;;5.53;;
7128;SDS011;3606;52.930;8.644;2022-12-24T03:15:57;8.33;;;6.23;;
7128;SDS011;3606;52.930;8.644;2022-12-24T03:18:25;9.47;;;6.33;;
7128;SDS011;3606;52.930;8.644;2022-12-24T03:20:57;8.33;;;6.33;;
7128;SDS011;3606;52.930;8.644;2022-12-24T03:23:27;7.13;;;5.97;;
7128;SDS011;3606;52.930;8.644;2022-12-24T03:25:53;7.17;;;6.03;;
7128;SDS011;3606;52.930;8.644;2022-12-24T03:28:19;8.23;;;6.30;;
7128;SDS011;3606;52.930;8.644;2022-12-24T03:30:50;9.10;;;6.63;;
7128;SDS011;3606;52.930;8.644;2022-12-24T03:33:16;7.87;;;6.23;;
7128;SDS011;3606;52.930;8.644;2022-12-24T03:35:42;8.20;;;6.73;;
7128;SDS011;3606;52.930;8.644;2022-12-24T03:38:08;9.83;;;6.40;;
7128;SDS011;3606;52.930;8.644;2022-12-24T03:40:33;8.07;;;6.37;;
7128;SDS011;3606;52.930;8.644;2022-12-24T03:42:59;9.63;;;6.97;;
7128;SDS011;3606;52.930;8.644;2022-12-24T03:45:24;9.10;;;6.93;;
7128;SDS011;3606;52.930;8.644;2022-12-24T03:47:50;8.53;;;6.80;;
7128;SDS011;3606;52.930;8.644;2022-12-24T03:50:16;10.27;;;7.70;;
7128;SDS011;3606;52.930;8.644;2022-12-24T03:52:41;11.00;;;7.37;;
7128;SDS011;3606;52.930;8.644;2022-12-24T03:55:08;10.53;;;8.93;;
7128;SDS011;3606;52.930;8.644;2022-12-24T03:57:33;15.10;;;10.60;;
7128;SDS011;3606;52.930;8.644;2022-12-24T03:59:59;13.37;;;9.80;;
7128;SDS011;3606;52.930;8.644;2022-12-24T04:02:24;16.87;;;10.83;;
7128;SDS011;3606;52.930;8.644;2022-12-24T04:04:50;18.00;;;10.70;;
7128;SDS011;3606;52.930;8.644;2022-12-24T04:07:16;18.87;;;11.67;;
7128;SDS011;3606;52.930;8.644;2022-12-24T04:09:41;18.63;;;12.33;;
7128;SDS011;3606;52.930;8.644;2022-12-24T04:12:07;23.33;;;12.90;;
7128;SDS011;3606;52.930;8.644;2022-12-24T04:14:32;24.27;;;13.60;;
7128;SDS011;3606;52.930;8.644;2022-12-24T04:16:58;21.23;;;13.30;;
7128;SDS011;3606;52.930;8.644;2022-12-24T04:19:24;21.13;;;13.83;;
7128;SDS011;3606;52.930;8.644;2022-12-24T04:21:49;21.50;;;14.13;;
7128;SDS011;3606;52.930;8.644;2022-12-24T04:24:15;25.10;;;14.87;;
7128;SDS011;3606;52.930;8.644;2022-12-24T04:26:40;28.40;;;16.60;;
7128;SDS011;3606;52.930;8.644;2022-12-24T04:29:06;28.80;;;15.77;;
7128;SDS011;3606;52.930;8.644;2022-12-24T04:31:31;26.27;;;15.53;;
7128;SDS011;3606;52.930;8.644;2022-12-24T04:33:57;27.83;;;15.70;;
7128;SDS011;3606;52.930;8.644;2022-12-24T04:36:23;27.97;;;15.80;;
7128;SDS011;3606;52.930;8.644;2022-12-24T04:38:48;26.00;;;15.50;;
7128;SDS011;3606;52.930;8.644;2022-12-24T04:41:18;27.30;;;15.53;;
7128;SDS011;3606;52.930;8.644;2022-12-24T04:43:44;24.53;;;14.77;;
7128;SDS011;3606;52.930;8.644;2022-12-24T04:46:11;26.40;;;15.87;;
7128;SDS011;3606;52.930;8.644;2022-12-24T04:48:39;30.80;;;15.30;;
7128;SDS011;3606;52.930;8.644;2022-12-24T04:51:05;26.47;;;14.90;;
7128;SDS011;3606;52.930;8.644;2022-12-24T04:53:31;25.17;;;14.60;;
7128;SDS011;3606;52.930;8.644;2022-12-24T04:55:57;25.57;;;14.23;;
7128;SDS011;3606;52.930;8.644;2022-12-24T04:58:23;26.90;;;15.67;;
7128;SDS011;3606;52.930;8.644;2022-12-24T05:00:49;25.23;;;15.07;;
7128;SDS011;3606;52.930;8.644;2022-12-24T05:03:14;23.03;;;14.77;;
7128;SDS011;3606;52.930;8.644;2022-12-24T05:05:40;25.17;;;14.80;;
7128;SDS011;3606;52.930;8.644;2022-12-24T05:08:05;24.40;;;14.20;;
7128;SDS011;3606;52.930;8.644;2022-12-24T05:10:31;24.17;;;13.20;;
7128;SDS011;3606;52.930;8.644;2022-12-24T05:12:56;21.30;;;12.23;;
7128;SDS011;3606;52.930;8.644;2022-12-24T05:15:22;21.87;;;12.20;;
7128;SDS011;3606;52.930;8.644;2022-12-24T05:17:48;20.67;;;12.27;;
7128;SDS011;3606;52.930;8.644;2022-12-24T05:20:14;19.67;;;11.33;;
7128;SDS011;3606;52.930;8.644;2022-12-24T05:22:40;19.13;;;11.60;;
7128;SDS011;3606;52.930;8.644;2022-12-24T05:25:24;16.20;;;10.97;;
7128;SDS011;3606;52.930;8.644;2022-12-24T05:28:13;17.77;;;10.63;;
7128;SDS011;3606;52.930;8.644;2022-12-24T05:30:39;14.73;;;9.60;;
7128;SDS011;3606;52.930;8.644;2022-12-24T05:33:05;17.90;;;10.37;;
7128;SDS011;3606;52.930;8.644;2022-12-24T05:35:30;14.37;;;9.57;;
7128;SDS011;3606;52.930;8.644;2022-12-24T05:37:56;17.93;;;9.17;;
7128;SDS011;3606;52.930;8.644;2022-12-24T05:40:22;16.77;;;8.27;;
7128;SDS011;3606;52.930;8.644;2022-12-24T05:42:48;14.43;;;8.60;;
7128;SDS011;3606;52.930;8.644;2022-12-24T05:45:14;22.23;;;8.97;;
7128;SDS011;3606;52.930;8.644;2022-12-24T05:47:40;14.13;;;8.03;;
7128;SDS011;3606;52.930;8.644;2022-12-24T05:50:06;15.67;;;7.87;;
7128;SDS011;3606;52.930;8.644;2022-12-24T05:52:32;18.63;;;8.00;;
7128;SDS011;3606;52.930;8.644;2022-12-24T05:54:57;18.93;;;7.20;;
7128;SDS011;3606;52.930;8.644;2022-12-24T05:57:23;19.83;;;7.20;;
7128;SDS011;3606;52.930;8.644;2022-12-24T05:59:49;23.03;;;6.90;;
7128;SDS011;3606;52.930;8.644;2022-12-24T06:02:14;15.37;;;6.47;;
7128;SDS011;3606;52.930;8.644;2022-12-24T06:04:40;20.93;;;6.23;;
7128;SDS011;3606;52.930;8.644;2022-12-24T06:07:05;14.30;;;6.10;;
7128;SDS011;3606;52.930;8.644;2022-12-24T06:09:31;20.83;;;5.90;;
7128;SDS011;3606;52.930;8.644;2022-12-24T06:11:57;20.83;;;5.80;;
7128;SDS011;3606;52.930;8.644;2022-12-24T06:14:22;24.30;;;5.93;;
7128;SDS011;3606;52.930;8.644;2022-12-24T06:16:48;18.07;;;6.03;;
7128;SDS011;3606;52.930;8.644;2022-12-24T06:19:13;21.30;;;6.20;;
7128;SDS011;3606;52.930;8.644;2022-12-24T06:21:39;32.20;;;6.00;;
7128;SDS011;3606;52.930;8.644;2022-12-24T06:24:04;22.97;;;5.73;;
7128;SDS011;3606;52.930;8.644;2022-12-24T06:26:30;23.30;;;5.20;;
7128;SDS011;3606;52.930;8.644;2022-12-24T06:28:56;25.27;;;5.80;;
7128;SDS011;3606;52.930;8.644;2022-12-24T06:31:22;30.13;;;6.13;;
7128;SDS011;3606;52.930;8.644;2022-12-24T06:33:48;23.23;;;5.33;;
7128;SDS011;3606;52.930;8.644;2022-12-24T06:36:16;28.97;;;5.47;;
7128;SDS011;3606;52.930;8.644;2022-12-24T06:38:44;18.43;;;5.83;;
7128;SDS011;3606;52.930;8.644;2022-12-24T06:41:10;26.20;;;4.93;;
7128;SDS011;3606;52.930;8.644;2022-12-24T06:43:36;23.77;;;5.37;;
7128;SDS011;3606;52.930;8.644;2022-12-24T06:46:03;28.10;;;5.50;;
7128;SDS011;3606;52.930;8.644;2022-12-24T06:48:29;21.70;;;4.83;;
7128;SDS011;3606;52.930;8.644;2022-12-24T06:50:55;20.87;;;5.43;;
7128;SDS011;3606;52.930;8.644;2022-12-24T06:53:20;21.60;;;5.43;;
7128;SDS011;3606;52.930;8.644;2022-12-24T06:55:47;18.83;;;4.97;;
7128;SDS011;3606;52.930;8.644;2022-12-24T06:58:12;15.20;;;4.83;;
7128;SDS011;3606;52.930;8.644;2022-12-24T07:00:38;25.93;;;5.17;;
7128;SDS011;3606;52.930;8.644;2022-12-24T07:03:04;28.20;;;5.83;;
7128;SDS011;3606;52.930;8.644;2022-12-24T07:05:30;21.67;;;5.50;;
7128;SDS011;3606;52.930;8.644;2022-12-24T07:07:56;31.53;;;5.50;;
7128;SDS011;3606;52.930;8.644;2022-12-24T07:10:21;31.73;;;6.20;;
7128;SDS011;3606;52.930;8.644;2022-12-24T07:12:47;28.67;;;5.37;;
7128;SDS011;3606;52.930;8.644;2022-12-24T07:15:13;21.17;;;4.87;;
7128;SDS011;3606;52.930;8.644;2022-12-24T07:17:40;17.27;;;5.43;;
7128;SDS011;3606;52.930;8.644;2022-12-24T07:20:05;26.27;;;5.23;;
7128;SDS011;3606;52.930;8.644;2022-12-24T07:22:32;14.60;;;4.53;;
7128;SDS011;3606;52.930;8.644;2022-12-24T07:24:58;19.40;;;5.33;;
7128;SDS011;3606;52.930;8.644;2022-12-24T07:27:24;20.33;;;4.90;;
7128;SDS011;3606;52.930;8.644;2022-12-24T07:29:49;23.43;;;5.07;;
7128;SDS011;3606;52.930;8.644;2022-12-24T07:32:15;20.27;;;4.87;;
7128;SDS011;3606;52.930;8.644;2022-12-24T07:34:40;25.03;;;4.90;;
7128;SDS011;3606;52.930;8.644;2022-12-24T07:37:06;20.87;;;5.43;;
7128;SDS011;3606;52.930;8.644;2022-12-24T07:39:32;33.33;;;5.83;;
7128;SDS011;3606;52.930;8.644;2022-12-24T07:41:57;13.97;;;5.30;;
7128;SDS011;3606;52.930;8.644;2022-12-24T07:44:23;25.30;;;5.53;;
7128;SDS011;3606;52.930;8.644;2022-12-24T07:46:49;27.87;;;6.30;;
7128;SDS011;3606;52.930;8.644;2022-12-24T07:49:15;29.30;;;5.30;;
7128;SDS011;3606;52.930;8.644;2022-12-24T07:51:40;19.37;;;5.47;;
7128;SDS011;3606;52.930;8.644;2022-12-24T07:54:06;14.97;;;5.40;;
7128;SDS011;3606;52.930;8.644;2022-12-24T07:56:32;20.43;;;5.90;;
7128;SDS011;3606;52.930;8.644;2022-12-24T07:58:57;22.50;;;6.07;;
7128;SDS011;3606;52.930;8.644;2022-12-24T08:01:23;21.93;;;6.07;;
7128;SDS011;3606;52.930;8.644;2022-12-24T08:03:49;25.57;;;6.13;;
7128;SDS011;3606;52.930;8.644;2022-12-24T08:06:18;25.17;;;6.93;;
7128;SDS011;3606;52.930;8.644;2022-12-24T08:08:44;26.27;;;6.87;;
7128;SDS011;3606;52.930;8.644;2022-12-24T08:11:10;29.03;;;7.00;;
7128;SDS011;3606;52.930;8.644;2022-12-24T08:13:37;28.40;;;6.93;;
7128;SDS011;3606;52.930;8.644;2022-12-24T08:16:03;29.43;;;7.13;;
7128;SDS011;3606;52.930;8.644;2022-12-24T08:18:29;22.70;;;7.17;;
7128;SDS011;3606;52.930;8.644;2022-12-24T08:20:55;30.33;;;7.73;;
7128;SDS011;3606;52.930;8.644;2022-12-24T08:23:20;36.60;;;7.80;;
7128;SDS011;3606;52.930;8.644;2022-12-24T08:25:46;24.17;;;7.20;;
7128;SDS011;3606;52.930;8.644;2022-12-24T08:28:13;38.33;;;8.03;;
7128;SDS011;3606;52.930;8.644;2022-12-24T08:30:41;25.00;;;8.13;;
7128;SDS011;3606;52.930;8.644;2022-12-24T08:33:07;25.93;;;7.67;;
7128;SDS011;3606;52.930;8.644;2022-12-24T08:35:32;32.97;;;7.43;;
7128;SDS011;3606;52.930;8.644;2022-12-24T08:37:58;33.83;;;8.07;;
7128;SDS011;3606;52.930;8.644;2022-12-24T08:40:24;29.83;;;8.10;;
7128;SDS011;3606;52.930;8.644;2022-12-24T08:42:49;26.73;;;8.40;;
7128;SDS011;3606;52.930;8.644;2022-12-24T08:45:15;36.07;;;8.87;;
7128;SDS011;3606;52.930;8.644;2022-12-24T08:47:41;22.83;;;7.53;;
7128;SDS011;3606;52.930;8.644;2022-12-24T08:50:07;24.57;;;7.87;;
7128;SDS011;3606;52.930;8.644;2022-12-24T08:52:33;26.87;;;8.27;;
7128;SDS011;3606;52.930;8.644;2022-12-24T08:54:59;27.57;;;8.13;;
7128;SDS011;3606;52.930;8.644;2022-12-24T08:57:25;32.70;;;7.97;;
7128;SDS011;3606;52.930;8.644;2022-12-24T08:59:50;31.27;;;7.50;;
7128;SDS011;3606;52.930;8.644;2022-12-24T09:02:16;34.70;;;8.03;;
7128;SDS011;3606;52.930;8.644;2022-12-24T09:04:41;24.10;;;7.50;;
7128;SDS011;3606;52.930;8.644;2022-12-24T09:07:07;21.63;;;7.73;;
7128;SDS011;3606;52.930;8.644;2022-12-24T09:09:34;26.10;;;8.13;;
7128;SDS011;3606;52.930;8.644;2022-12-24T09:11:59;30.47;;;7.67;;
7128;SDS011;3606;52.930;8.644;2022-12-24T09:14:25;31.13;;;7.60;;
7128;SDS011;3606;52.930;8.644;2022-12-24T09:16:51;19.80;;;7.83;;
7128;SDS011;3606;52.930;8.644;2022-12-24T09:19:16;25.90;;;7.37;;
7128;SDS011;3606;52.930;8.644;2022-12-24T09:21:42;33.03;;;8.00;;
7128;SDS011;3606;52.930;8.644;2022-12-24T09:24:07;25.77;;;7.73;;
7128;SDS011;3606;52.930;8.644;2022-12-24T09:26:33;30.17;;;7.90;;
7128;SDS011;3606;52.930;8.644;2022-12-24T09:29:00;25.47;;;7.63;;
7128;SDS011;3606;52.930;8.644;2022-12-24T09:31:26;29.47;;;7.63;;
7128;SDS011;3606;52.930;8.644;2022-12-24T09:33:52;25.83;;;7.03;;
7128;SDS011;3606;52.930;8.644;2022-12-24T09:36:19;26.00;;;7.63;;
7128;SDS011;3606;52.930;8.644;2022-12-24T09:38:45;25.63;;;7.43;;
7128;SDS011;3606;52.930;8.644;2022-12-24T09:43:52;28.93;;;6.70;;
7128;SDS011;3606;52.930;8.644;2022-12-24T09:46:32;23.53;;;6.80;;
7128;SDS011;3606;52.930;8.644;2022-12-24T09:49:09;21.07;;;6.17;;
7128;SDS011;3606;52.930;8.644;2022-12-24T09:51:43;19.53;;;6.73;;
7128;SDS011;3606;52.930;8.644;2022-12-24T09:56:45;20.13;;;6.30;;
7128;SDS011;3606;52.930;8.644;2022-12-24T09:59:13;20.07;;;6.20;;
7128;SDS011;3606;52.930;8.644;2022-12-24T10:02:08;22.13;;;6.03;;
7128;SDS011;3606;52.930;8.644;2022-12-24T10:04:36;24.37;;;6.50;;
7128;SDS011;3606;52.930;8.644;2022-12-24T10:10:09;25.00;;;6.67;;
7128;SDS011;3606;52.930;8.644;2022-12-24T10:12:50;29.03;;;6.40;;
7128;SDS011;3606;52.930;8.644;2022-12-24T10:21:23;17.80;;;5.63;;
7128;SDS011;3606;52.930;8.644;2022-12-24T10:23:58;26.33;;;6.80;;
7128;SDS011;3606;52.930;8.644;2022-12-24T10:27:14;30.57;;;7.10;;
7128;SDS011;3606;52.930;8.644;2022-12-24T10:29:21;23.73;;;7.07;;
7128;SDS011;3606;52.930;8.644;2022-12-24T10:31:57;28.43;;;7.40;;
7128;SDS011;3606;52.930;8.644;2022-12-24T10:34:34;17.43;;;6.23;;
7128;SDS011;3606;52.930;8.644;2022-12-24T10:37:06;18.23;;;6.53;;
7128;SDS011;3606;52.930;8.644;2022-12-24T10:39:43;21.17;;;6.70;;
7128;SDS011;3606;52.930;8.644;2022-12-24T10:42:08;21.63;;;6.00;;
7128;SDS011;3606;52.930;8.644;2022-12-24T10:44:37;26.37;;;6.80;;
7128;SDS011;3606;52.930;8.644;2022-12-24T10:47:03;19.50;;;6.87;;
7128;SDS011;3606;52.930;8.644;2022-12-24T10:49:36;26.13;;;6.20;;
7128;SDS011;3606;52.930;8.644;2022-12-24T10:52:12;21.47;;;6.37;;
7128;SDS011;3606;52.930;8.644;2022-12-24T10:57:35;27.43;;;6.50;;
7128;SDS011;3606;52.930;8.644;2022-12-24T11:00:01;27.47;;;7.10;;
7128;SDS011;3606;52.930;8.644;2022-12-24T11:02:34;22.60;;;6.57;;
7128;SDS011;3606;52.930;8.644;2022-12-24T11:05:04;23.17;;;6.80;;
7128;SDS011;3606;52.930;8.644;2022-12-24T11:07:58;17.07;;;5.53;;
7128;SDS011;3606;52.930;8.644;2022-12-24T11:10:32;17.30;;;5.90;;
7128;SDS011;3606;52.930;8.644;2022-12-24T11:13:00;29.90;;;7.07;;
7128;SDS011;3606;52.930;8.644;2022-12-24T11:15:30;19.40;;;5.93;;
7128;SDS011;3606;52.930;8.644;2022-12-24T11:20:27;29.40;;;7.73;;
7128;SDS011;3606;52.930;8.644;2022-12-24T11:22:55;27.57;;;7.37;;
7128;SDS011;3606;52.930;8.644;2022-12-24T11:25:21;23.43;;;6.80;;
7128;SDS011;3606;52.930;8.644;2022-12-24T11:28:11;20.70;;;6.87;;
7128;SDS011;3606;52.930;8.644;2022-12-24T11:31:01;25.83;;;7.53;;
7128;SDS011;3606;52.930;8.644;2022-12-24T11:33:48;20.70;;;6.83;;
7128;SDS011;3606;52.930;8.644;2022-12-24T11:36:16;27.33;;;7.23;;
7128;SDS011;3606;52.930;8.644;2022-12-24T11:38:53;24.47;;;7.93;;
7128;SDS011;3606;52.930;8.644;2022-12-24T11:41:21;27.43;;;8.30;;
7128;SDS011;3606;52.930;8.644;2022-12-24T11:43:56;21.57;;;7.37;;
7128;SDS011;3606;52.930;8.644;2022-12-24T11:46:36;20.67;;;6.93;;
7128;SDS011;3606;52.930;8.644;2022-12-24T11:49:04;24.73;;;7.83;;
7128;SDS011;3606;52.930;8.644;2022-12-24T11:51:30;25.47;;;7.57;;
7128;SDS011;3606;52.930;8.644;2022-12-24T11:54:01;23.23;;;7.33;;
7128;SDS011;3606;52.930;8.644;2022-12-24T11:56:40;18.90;;;7.00;;
7128;SDS011;3606;52.930;8.644;2022-12-24T11:59:29;22.43;;;6.10;;
7128;SDS011;3606;52.930;8.644;2022-12-24T12:04:48;19.67;;;6.93;;
7128;SDS011;3606;52.930;8.644;2022-12-24T12:07:22;29.93;;;7.47;;
7128;SDS011;3606;52.930;8.644;2022-12-24T12:15:21;29.50;;;10.67;;
7128;SDS011;3606;52.930;8.644;2022-12-24T12:18:02;22.43;;;8.83;;
7128;SDS011;3606;52.930;8.644;2022-12-24T12:20:31;29.40;;;8.30;;
7128;SDS011;3606;52.930;8.644;2022-12-24T12:28:17;19.27;;;6.50;;
7128;SDS011;3606;52.930;8.644;2022-12-24T12:31:03;18.80;;;8.03;;
7128;SDS011;3606;52.930;8.644;2022-12-24T12:36:07;27.23;;;9.93;;
7128;SDS011;3606;52.930;8.644;2022-12-24T12:38:36;38.10;;;15.93;;
7128;SDS011;3606;52.930;8.644;2022-12-24T12:46:19;28.13;;;9.93;;
7128;SDS011;3606;52.930;8.644;2022-12-24T12:51:32;15.27;;;7.90;;
7128;SDS011;3606;52.930;8.644;2022-12-24T12:57:15;20.17;;;7.70;;
7128;SDS011;3606;52.930;8.644;2022-12-24T12:59:50;14.50;;;6.37;;
7128;SDS011;3606;52.930;8.644;2022-12-24T13:05:48;11.33;;;4.10;;
7128;SDS011;3606;52.930;8.644;2022-12-24T13:19:58;11.83;;;3.33;;
7128;SDS011;3606;52.930;8.644;2022-12-24T13:22:53;8.60;;;3.30;;
7128;SDS011;3606;52.930;8.644;2022-12-24T13:25:29;6.97;;;3.17;;
7128;SDS011;3606;52.930;8.644;2022-12-24T13:28:31;11.40;;;3.77;;
7128;SDS011;3606;52.930;8.644;2022-12-24T13:36:09;13.23;;;4.00;;
7128;SDS011;3606;52.930;8.644;2022-12-24T13:49:43;15.10;;;4.03;;
7128;SDS011;3606;52.930;8.644;2022-12-24T13:54:44;19.23;;;4.40;;
7128;SDS011;3606;52.930;8.644;2022-12-24T13:57:22;19.57;;;5.73;;
7128;SDS011;3606;52.930;8.644;2022-12-24T13:59:58;16.60;;;4.90;;
7128;SDS011;3606;52.930;8.644;2022-12-24T14:02:24;17.60;;;4.47;;
7128;SDS011;3606;52.930;8.644;2022-12-24T14:04:53;13.87;;;4.70;;
7128;SDS011;3606;52.930;8.644;2022-12-24T14:07:24;11.97;;;4.30;;
7128;SDS011;3606;52.930;8.644;2022-12-24T14:09:50;15.47;;;4.57;;
7128;SDS011;3606;52.930;8.644;2022-12-24T14:12:33;12.40;;;4.67;;
7128;SDS011;3606;52.930;8.644;2022-12-24T14:18:09;14.20;;;4.57;;
7128;SDS011;3606;52.930;8.644;2022-12-24T14:20:40;15.50;;;5.70;;
7128;SDS011;3606;52.930;8.644;2022-12-24T14:23:06;20.83;;;9.50;;
7128;SDS011;3606;52.930;8.644;2022-12-24T14:25:51;26.47;;;14.13;;
7128;SDS011;3606;52.930;8.644;2022-12-24T14:28:17;80.80;;;36.07;;
7128;SDS011;3606;52.930;8.644;2022-12-24T14:30:46;21.13;;;8.40;;
7128;SDS011;3606;52.930;8.644;2022-12-24T14:33:31;68.33;;;43.53;;
7128;SDS011;3606;52.930;8.644;2022-12-24T14:35:58;19.73;;;8.47;;
7128;SDS011;3606;52.930;8.644;2022-12-24T14:38:26;18.07;;;5.80;;
7128;SDS011;3606;52.930;8.644;2022-12-24T14:40:55;22.03;;;5.67;;
7128;SDS011;3606;52.930;8.644;2022-12-24T14:49:03;20.93;;;5.43;;
7128;SDS011;3606;52.930;8.644;2022-12-24T14:54:24;17.20;;;5.63;;
7128;SDS011;3606;52.930;8.644;2022-12-24T14:59:42;14.17;;;5.00;;
7128;SDS011;3606;52.930;8.644;2022-12-24T15:05:24;18.73;;;5.40;;
7128;SDS011;3606;52.930;8.644;2022-12-24T15:07:55;14.57;;;5.77;;
7128;SDS011;3606;52.930;8.644;2022-12-24T15:12:48;27.83;;;6.37;;
7128;SDS011;3606;52.930;8.644;2022-12-24T15:15:15;21.33;;;6.00;;
7128;SDS011;3606;52.930;8.644;2022-12-24T15:17:42;23.80;;;6.20;;
7128;SDS011;3606;52.930;8.644;2022-12-24T15:20:12;21.37;;;6.10;;
7128;SDS011;3606;52.930;8.644;2022-12-24T15:22:41;17.67;;;5.73;;
7128;SDS011;3606;52.930;8.644;2022-12-24T15:25:21;20.97;;;5.77;;
7128;SDS011;3606;52.930;8.644;2022-12-24T15:27:49;15.90;;;5.63;;
7128;SDS011;3606;52.930;8.644;2022-12-24T15:30:33;21.43;;;6.47;;
7128;SDS011;3606;52.930;8.644;2022-12-24T15:32:58;25.27;;;8.53;;
7128;SDS011;3606;52.930;8.644;2022-12-24T15:36:07;19.40;;;5.73;;
7128;SDS011;3606;52.930;8.644;2022-12-24T15:38:28;13.43;;;4.33;;
7128;SDS011;3606;52.930;8.644;2022-12-24T15:40:58;19.17;;;5.70;;
7128;SDS011;3606;52.930;8.644;2022-12-24T15:43:26;19.37;;;5.60;;
7128;SDS011;3606;52.930;8.644;2022-12-24T15:45:52;16.20;;;5.37;;
7128;SDS011;3606;52.930;8.644;2022-12-24T15:48:20;17.37;;;5.47;;
7128;SDS011;3606;52.930;8.644;2022-12-24T15:50:55;21.90;;;5.47;;
7128;SDS011;3606;52.930;8.644;2022-12-24T15:58:28;19.23;;;5.47;;
7128;SDS011;3606;52.930;8.644;2022-12-24T16:03:38;21.17;;;6.20;;
7128;SDS011;3606;52.930;8.644;2022-12-24T16:06:13;13.20;;;4.47;;
7128;SDS011;3606;52.930;8.644;2022-12-24T16:08:39;19.87;;;5.20;;
7128;SDS011;3606;52.930;8.644;2022-12-24T16:11:13;12.77;;;5.33;;
7128;SDS011;3606;52.930;8.644;2022-12-24T16:16:30;23.10;;;7.03;;
7128;SDS011;3606;52.930;8.644;2022-12-24T16:18:57;25.00;;;6.70;;
7128;SDS011;3606;52.930;8.644;2022-12-24T16:21:24;14.60;;;6.43;;
7128;SDS011;3606;52.930;8.644;2022-12-24T16:23:57;28.03;;;7.23;;
7128;SDS011;3606;52.930;8.644;2022-12-24T16:26:30;21.67;;;6.53;;
7128;SDS011;3606;52.930;8.644;2022-12-24T16:28:59;20.43;;;6.90;;
7128;SDS011;3606;52.930;8.644;2022-12-24T16:31:31;18.50;;;6.23;;
7128;SDS011;3606;52.930;8.644;2022-12-24T16:34:03;24.17;;;6.47;;
7128;SDS011;3606;52.930;8.644;2022-12-24T16:36:29;27.67;;;7.50;;
7128;SDS011;3606;52.930;8.644;2022-12-24T16:38:56;18.10;;;6.00;;
7128;SDS011;3606;52.930;8.644;2022-12-24T16:41:41;22.73;;;6.37;;
7128;SDS011;3606;52.930;8.644;2022-12-24T16:44:26;16.93;;;5.90;;
7128;SDS011;3606;52.930;8.644;2022-12-24T16:46:52;17.17;;;5.57;;
7128;SDS011;3606;52.930;8.644;2022-12-24T16:49:19;17.53;;;5.70;;
7128;SDS011;3606;52.930;8.644;2022-12-24T16:51:46;18.73;;;5.30;;
7128;SDS011;3606;52.930;8.644;2022-12-24T16:54:12;15.10;;;5.20;;
7128;SDS011;3606;52.930;8.644;2022-12-24T16:56:39;15.27;;;5.13;;
7128;SDS011;3606;52.930;8.644;2022-12-24T16:59:14;19.53;;;4.87;;
7128;SDS011;3606;52.930;8.644;2022-12-24T17:01:42;12.80;;;5.40;;
7128;SDS011;3606;52.930;8.644;2022-12-24T17:04:07;16.50;;;4.83;;
7128;SDS011;3606;52.930;8.644;2022-12-24T17:06:33;10.70;;;4.50;;
7128;SDS011;3606;52.930;8.644;2022-12-24T17:08:59;17.00;;;4.37;;
7128;SDS011;3606;52.930;8.644;2022-12-24T17:11:24;11.40;;;4.40;;
7128;SDS011;3606;52.930;8.644;2022-12-24T17:13:50;15.27;;;4.43;;
7128;SDS011;3606;52.930;8.644;2022-12-24T17:16:16;10.50;;;4.23;;
7128;SDS011;3606;52.930;8.644;2022-12-24T17:18:41;13.50;;;4.07;;
7128;SDS011;3606;52.930;8.644;2022-12-24T17:21:08;12.30;;;4.37;;
7128;SDS011;3606;52.930;8.644;2022-12-24T17:23:34;13.87;;;5.70;;
7128;SDS011;3606;52.930;8.644;2022-12-24T17:26:00;12.10;;;4.77;;
7128;SDS011;3606;52.930;8.644;2022-12-24T17:28:26;15.27;;;5.83;;